Black Watch — C6RS5 — position and weather

sailwx.info

Track history (hours):
 
Tides and Currents Weather Stations Pressure Air Temp Water Temp Dewpoint Dewpoint Depression Visibility Wind Speed Wind Dir Waves Ship Positions

Black Watch

Last reported at 2018-Feb-22 12:27 UTC. Time now 2018-Feb-22 17:00 UTC.
Position S 36°27' E 174°59'.

Length 205 m; draft 7.5 m.

Type: Passenger vessel. MMSI: 311166000.

Date/timePositionNaut miles runAvg speedWind from/ knotsBaromVisibWave heightAir tempDewpointWater temp
2018-Feb-22 12:27S 36°27' E 174°59'813.9
2018-Feb-22 11:53S 36°35' E 174°59'513.8
2018-Feb-22 11:30S 36°39' E 174°55'813.3
2018-Feb-22 10:55S 36°45' E 174°50'510.9
2018-Feb-22 10:30S 36°50' E 174°49'3 0.1
2018-Feb-21 07:45S 36°50' E 174°46'0 0.4
2018-Feb-21 07:29S 36°50' E 174°46'0 0.1
2018-Feb-21 06:51S 36°50' E 174°46'0 0.0
2018-Feb-21 06:27S 36°50' E 174°46'0 0.0
2018-Feb-21 03:21S 36°50' E 174°46'0 0.0
2018-Feb-21 00:15S 36°50' E 174°46'0 0.0
2018-Feb-20 23:57S 36°50' E 174°46'0 0.0
2018-Feb-20 23:27S 36°50' E 174°46'0 0.0
2018-Feb-20 22:57S 36°50' E 174°46'0 0.0
2018-Feb-20 22:21S 36°50' E 174°46'0 0.0
2018-Feb-20 21:57S 36°50' E 174°46'0 0.0
2018-Feb-20 21:29S 36°50' E 174°46'0 0.0
2018-Feb-20 21:00S 36°50' E 174°46'0 0.3
2018-Feb-20 20:29S 36°50' E 174°46'2 4.1
2018-Feb-20 20:00S 36°50' E 174°49'511.0
2018-Feb-20 19:30S 36°45' E 174°50'4 8.4
2018-Feb-20 19:00S 36°41' E 174°53'5 9.4
2018-Feb-20 18:30S 36°38' E 174°57'5 9.1
2018-Feb-20 18:00S 36°35' E 175°01'5 9.9
2018-Feb-20 17:30S 36°31' E 175°06'5 9.8
2018-Feb-20 17:00S 36°28' E 175°10'  
Track history (hours):
 
Tides and Currents Weather Stations Pressure Air Temp Water Temp Dewpoint Dewpoint Depression Visibility Wind Speed Wind Dir Waves Ship Positions

Black Watch

Last reported at 2018-Feb-22 12:27 UTC. Time now 2018-Feb-22 17:00 UTC.
Position S 36°27' E 174°59'.

Length 205 m; draft 7.5 m.

Type: Passenger vessel. MMSI: 311166000.

Date/timePositionNaut miles runAvg speedWind from/ knotsBaromVisibWave heightAir tempDewpointWater temp
2018-Feb-22 12:27S 36°27' E 174°59'813.9
2018-Feb-22 11:53S 36°35' E 174°59'513.8
2018-Feb-22 11:30S 36°39' E 174°55'813.3
2018-Feb-22 10:55S 36°45' E 174°50'510.9
2018-Feb-22 10:30S 36°50' E 174°49'3 0.1
2018-Feb-21 07:45S 36°50' E 174°46'0 0.4
2018-Feb-21 07:29S 36°50' E 174°46'0 0.1
2018-Feb-21 06:51S 36°50' E 174°46'0 0.0
2018-Feb-21 06:27S 36°50' E 174°46'0 0.0
2018-Feb-21 03:21S 36°50' E 174°46'0 0.0
2018-Feb-21 00:15S 36°50' E 174°46'0 0.0
2018-Feb-20 23:57S 36°50' E 174°46'0 0.0
2018-Feb-20 23:27S 36°50' E 174°46'0 0.0
2018-Feb-20 22:57S 36°50' E 174°46'0 0.0
2018-Feb-20 22:21S 36°50' E 174°46'0 0.0
2018-Feb-20 21:57S 36°50' E 174°46'0 0.0
2018-Feb-20 21:29S 36°50' E 174°46'0 0.0
2018-Feb-20 21:00S 36°50' E 174°46'0 0.3
2018-Feb-20 20:29S 36°50' E 174°46'2 4.1
2018-Feb-20 20:00S 36°50' E 174°49'511.0
2018-Feb-20 19:30S 36°45' E 174°50'4 8.4
2018-Feb-20 19:00S 36°41' E 174°53'5 9.4
2018-Feb-20 18:30S 36°38' E 174°57'5 9.1
2018-Feb-20 18:00S 36°35' E 175°01'5 9.9
2018-Feb-20 17:30S 36°31' E 175°06'5 9.8
2018-Feb-20 17:00S 36°28' E 175°10'  

Dump ship's entire track history